createdAt,value
2018-09-28T00:01:49.427Z,78.40
2018-09-28T00:04:17.954Z,78.60
2018-09-28T00:06:46.504Z,78.90
2018-09-28T00:09:15.114Z,79.00
2018-09-28T00:11:43.616Z,79.10
2018-09-28T00:14:12.025Z,79.20
2018-09-28T00:16:40.549Z,79.40
2018-09-28T00:19:09.040Z,79.80
2018-09-28T00:21:37.514Z,80.10
2018-09-28T00:24:05.925Z,80.20
2018-09-28T00:26:34.342Z,80.50
2018-09-28T00:29:02.985Z,81.00
2018-09-28T00:31:31.454Z,81.30
2018-09-28T00:33:59.973Z,81.70
2018-09-28T00:36:28.470Z,82.00
2018-09-28T00:38:56.789Z,82.00
2018-09-28T00:41:25.253Z,82.40
2018-09-28T00:43:53.706Z,82.80
2018-09-28T00:46:22.237Z,83.10
2018-09-28T00:48:50.646Z,83.10
2018-09-28T00:51:19.250Z,83.40
2018-09-28T00:53:47.717Z,83.50
2018-09-28T00:56:16.089Z,83.90
2018-09-28T00:58:44.565Z,83.80
2018-09-28T01:01:13.012Z,84.10
2018-09-28T01:03:41.456Z,84.30
2018-09-28T01:06:09.896Z,84.40
2018-09-28T01:08:38.406Z,84.10
2018-09-28T01:11:07.097Z,84.50
2018-09-28T01:13:35.572Z,84.80
2018-09-28T01:16:04.131Z,84.90
2018-09-28T01:18:32.621Z,85.30
2018-09-28T01:21:01.158Z,85.50
2018-09-28T01:23:29.656Z,85.80
2018-09-28T01:25:58.234Z,86.00
2018-09-28T01:28:26.750Z,86.20
2018-09-28T01:30:55.197Z,86.30
2018-09-28T01:33:23.616Z,86.00
2018-09-28T01:35:52.148Z,86.00
2018-09-28T01:38:20.676Z,86.40
2018-09-28T01:40:49.206Z,86.50
2018-09-28T01:43:17.920Z,86.80
2018-09-28T01:45:46.433Z,87.40
2018-09-28T01:48:14.869Z,87.00
2018-09-28T01:50:43.374Z,86.50
2018-09-28T01:53:11.874Z,86.70
2018-09-28T01:55:40.349Z,86.60
2018-09-28T01:58:08.772Z,86.30
2018-09-28T02:00:37.240Z,86.30
2018-09-28T02:03:05.810Z,86.30
2018-09-28T02:05:34.260Z,85.90
2018-09-28T02:08:02.680Z,85.80
2018-09-28T02:10:31.240Z,85.90
2018-09-28T02:12:59.597Z,85.70
2018-09-28T02:15:28.106Z,85.60
2018-09-28T02:17:56.557Z,85.40
2018-09-28T02:20:25.212Z,85.30
2018-09-28T02:22:53.749Z,85.40
2018-09-28T02:25:22.229Z,85.30
2018-09-28T02:27:50.689Z,85.10
2018-09-28T02:30:19.276Z,85.20
2018-09-28T02:32:47.813Z,85.40
2018-09-28T02:35:16.424Z,85.30
2018-09-28T02:37:45.084Z,84.90
2018-09-28T02:40:13.725Z,85.00
2018-09-28T02:42:42.297Z,84.40
2018-09-28T02:45:10.949Z,83.30
2018-09-28T02:47:39.490Z,83.50
2018-09-28T02:50:08.100Z,83.40
2018-09-28T02:52:36.597Z,83.80
2018-09-28T02:55:05.109Z,83.40
2018-09-28T02:57:33.582Z,84.20
2018-09-28T03:00:02.007Z,84.60
2018-09-28T03:02:30.507Z,83.90
2018-09-28T03:04:58.989Z,84.10
2018-09-28T03:07:27.474Z,84.10
2018-09-28T03:09:56.037Z,83.80
2018-09-28T03:12:24.516Z,83.60
2018-09-28T03:14:53.151Z,83.30
2018-09-28T03:17:21.656Z,82.60
2018-09-28T03:19:50.138Z,82.30
2018-09-28T03:22:18.565Z,81.40
2018-09-28T03:24:47.101Z,81.20
2018-09-28T03:27:15.523Z,81.00
2018-09-28T03:29:44.121Z,80.50
2018-09-28T03:32:12.537Z,80.20
2018-09-28T03:34:41.141Z,79.60
2018-09-28T03:37:09.684Z,79.40
2018-09-28T03:39:38.104Z,79.30
2018-09-28T03:42:06.594Z,78.50
2018-09-28T03:44:35.098Z,78.80
2018-09-28T03:47:03.733Z,78.60
2018-09-28T03:49:32.206Z,78.60
2018-09-28T03:52:00.653Z,77.90
2018-09-28T03:54:29.149Z,77.50
2018-09-28T03:56:57.659Z,78.30
2018-09-28T03:59:26.088Z,78.20
2018-09-28T04:01:54.485Z,77.30
2018-09-28T04:04:23.064Z,76.60
2018-09-28T04:06:51.545Z,76.80
2018-09-28T04:09:20.062Z,76.80
2018-09-28T04:11:48.555Z,76.30
2018-09-28T04:14:17.274Z,76.40
2018-09-28T04:16:45.897Z,75.30
2018-09-28T04:19:14.462Z,75.60
2018-09-28T04:21:47.233Z,75.80
2018-09-28T04:24:15.677Z,75.70
2018-09-28T04:26:44.349Z,75.90
2018-09-28T04:29:12.840Z,75.50
2018-09-28T04:31:41.400Z,75.80
2018-09-28T04:34:09.830Z,76.10
2018-09-28T04:36:38.377Z,74.90
2018-09-28T04:39:07.305Z,74.80
2018-09-28T04:41:35.889Z,76.00
2018-09-28T04:44:04.366Z,75.60
2018-09-28T04:46:32.997Z,75.40
2018-09-28T04:49:03.581Z,75.80
2018-09-28T04:51:32.329Z,74.70
2018-09-28T04:54:00.852Z,75.10
2018-09-28T04:56:29.639Z,74.80
2018-09-28T04:59:05.266Z,75.20
2018-09-28T05:01:34.076Z,75.50
2018-09-28T05:04:03.576Z,74.30
2018-09-28T05:06:32.277Z,74.20
2018-09-28T05:11:58.586Z,74.20
2018-09-28T05:14:27.036Z,74.00
2018-09-28T05:16:55.536Z,73.40
2018-09-28T05:19:25.168Z,73.60
2018-09-28T05:21:53.567Z,74.80
2018-09-28T05:24:22.565Z,74.30
2018-09-28T05:26:50.997Z,76.60
2018-09-28T05:29:19.581Z,73.70
2018-09-28T05:31:48.210Z,73.30
2018-09-28T05:34:16.765Z,73.50
2018-09-28T05:36:45.383Z,73.10
2018-09-28T05:39:13.944Z,73.60
2018-09-28T05:41:42.413Z,72.90
2018-09-28T05:44:11.000Z,73.40
2018-09-28T05:46:39.509Z,73.20
2018-09-28T05:49:08.037Z,73.60
2018-09-28T05:51:36.521Z,73.30
2018-09-28T05:54:05.117Z,73.90
2018-09-28T05:56:33.725Z,72.70
2018-09-28T05:59:07.582Z,71.80
2018-09-28T06:01:41.846Z,71.30
2018-09-28T06:04:15.755Z,72.50
2018-09-28T06:06:44.304Z,71.10
2018-09-28T06:09:12.837Z,70.90
2018-09-28T06:11:41.287Z,71.00
2018-09-28T06:14:10.008Z,70.80
2018-09-28T06:16:38.593Z,71.10
2018-09-28T06:19:07.215Z,70.70
2018-09-28T06:21:35.824Z,70.30
2018-09-28T06:24:04.554Z,69.60
2018-09-28T06:26:33.115Z,69.50
2018-09-28T06:29:01.565Z,69.50
2018-09-28T06:31:30.301Z,69.80
2018-09-28T06:33:58.814Z,68.60
2018-09-28T06:36:27.556Z,68.90
2018-09-28T06:38:56.344Z,68.40
2018-09-28T06:41:26.826Z,69.10
2018-09-28T06:43:55.560Z,68.80
2018-09-28T06:46:24.342Z,68.80
2018-09-28T06:48:52.812Z,68.60
2018-09-28T06:51:21.380Z,69.20
2018-09-28T06:53:50.057Z,69.40
2018-09-28T06:56:18.539Z,69.50
2018-09-28T06:58:47.116Z,69.80
2018-09-28T07:01:15.605Z,69.80
2018-09-28T07:03:44.165Z,68.90
2018-09-28T07:06:12.655Z,69.90
2018-09-28T07:08:41.217Z,68.70
2018-09-28T07:11:09.697Z,69.00
2018-09-28T07:13:38.303Z,68.90
2018-09-28T07:16:06.884Z,67.60
2018-09-28T07:18:35.357Z,68.30
2018-09-28T07:21:03.866Z,68.00
2018-09-28T07:23:32.400Z,68.60
2018-09-28T07:26:00.921Z,68.70
2018-09-28T07:28:29.440Z,68.40
2018-09-28T07:30:58.041Z,68.20
2018-09-28T07:33:27.823Z,69.00
2018-09-28T07:35:57.087Z,68.30
2018-09-28T07:38:25.845Z,68.70
2018-09-28T07:40:54.607Z,68.00
2018-09-28T07:43:23.503Z,68.20
2018-09-28T07:45:54.999Z,68.50
2018-09-28T07:48:23.565Z,67.70
2018-09-28T07:50:52.070Z,68.00
2018-09-28T07:53:20.810Z,68.50
2018-09-28T07:55:49.756Z,66.20
2018-09-28T07:58:18.436Z,65.90
2018-09-28T08:00:47.040Z,65.60
2018-09-28T08:03:15.654Z,66.30
2018-09-28T08:05:44.198Z,67.00
2018-09-28T08:08:12.788Z,66.30
2018-09-28T08:10:41.590Z,67.20
2018-09-28T08:13:10.290Z,67.40
2018-09-28T08:15:38.959Z,67.60
2018-09-28T08:18:07.753Z,67.70
2018-09-28T08:20:36.340Z,68.10
2018-09-28T08:23:04.917Z,67.90
2018-09-28T08:25:33.682Z,69.10
2018-09-28T08:28:02.190Z,67.90
2018-09-28T08:30:30.812Z,68.00
2018-09-28T08:32:59.402Z,68.20
2018-09-28T08:35:27.982Z,67.20
2018-09-28T08:37:56.646Z,66.30
2018-09-28T08:40:25.233Z,66.10
2018-09-28T08:42:53.896Z,66.80
2018-09-28T08:45:22.647Z,67.10
2018-09-28T08:47:51.567Z,67.20
2018-09-28T08:50:20.061Z,67.80
2018-09-28T08:52:48.592Z,67.20
2018-09-28T08:55:17.118Z,66.60
2018-09-28T08:57:46.632Z,67.10
2018-09-28T09:00:15.197Z,68.00
2018-09-28T09:02:43.969Z,70.00
2018-09-28T09:05:12.415Z,71.40
2018-09-28T09:07:40.874Z,72.30
2018-09-28T09:10:09.431Z,73.80
2018-09-28T09:12:37.985Z,72.80
2018-09-28T09:15:06.506Z,73.80
2018-09-28T09:17:35.182Z,74.00
2018-09-28T09:20:03.782Z,73.10
2018-09-28T09:22:32.265Z,73.50
2018-09-28T09:25:00.972Z,72.90
2018-09-28T09:27:29.659Z,70.80
2018-09-28T09:29:58.150Z,69.20
2018-09-28T09:32:26.621Z,71.00
2018-09-28T09:34:55.168Z,72.00
2018-09-28T09:37:23.707Z,69.70
2018-09-28T09:39:52.193Z,69.60
2018-09-28T09:42:20.614Z,68.10
2018-09-28T09:44:49.149Z,68.80
2018-09-28T09:47:17.741Z,69.70
2018-09-28T09:49:46.298Z,69.50
2018-09-28T09:52:14.971Z,70.10
2018-09-28T09:54:44.482Z,70.00
2018-09-28T09:57:13.137Z,68.70
2018-09-28T09:59:41.576Z,68.00
2018-09-28T10:02:15.498Z,67.40
2018-09-28T10:04:44.232Z,67.80
2018-09-28T10:07:13.074Z,66.70
2018-09-28T10:09:42.025Z,66.70
2018-09-28T10:12:10.563Z,66.10
2018-09-28T10:14:39.295Z,66.70
2018-09-28T10:17:08.124Z,66.00
2018-09-28T10:19:37.041Z,66.50
2018-09-28T10:22:05.440Z,65.50
2018-09-28T10:24:34.071Z,63.80
2018-09-28T10:27:02.798Z,61.90
2018-09-28T10:29:31.376Z,61.90
2018-09-28T10:32:00.192Z,59.40
2018-09-28T10:34:28.723Z,60.70
2018-09-28T10:36:57.325Z,59.50
2018-09-28T10:39:26.035Z,59.50
2018-09-28T10:41:54.745Z,59.40
2018-09-28T10:44:23.408Z,59.40
2018-09-28T10:46:52.128Z,58.60
2018-09-28T10:49:21.591Z,58.00
2018-09-28T10:51:51.746Z,56.90
2018-09-28T10:54:20.182Z,56.30
2018-09-28T10:56:48.630Z,56.10
2018-09-28T10:59:17.141Z,55.60
2018-09-28T11:01:45.608Z,55.00
2018-09-28T11:04:14.258Z,54.00
2018-09-28T11:06:42.845Z,52.60
2018-09-28T11:09:12.305Z,51.90
2018-09-28T11:11:41.541Z,52.90
2018-09-28T11:14:10.429Z,54.00
2018-09-28T11:16:39.428Z,53.50
2018-09-28T11:19:08.118Z,53.30
2018-09-28T11:21:36.575Z,53.90
2018-09-28T11:24:05.120Z,53.40
2018-09-28T11:26:33.598Z,52.30
2018-09-28T11:29:02.050Z,52.30
2018-09-28T11:31:30.534Z,52.00
2018-09-28T11:33:59.114Z,51.00
2018-09-28T11:36:27.553Z,51.60
2018-09-28T11:38:57.058Z,50.20
2018-09-28T11:41:25.549Z,51.50
2018-09-28T11:43:54.036Z,45.50
2018-09-28T11:46:22.629Z,45.50
2018-09-28T11:48:51.124Z,45.90
2018-09-28T11:51:19.988Z,46.00
2018-09-28T11:56:41.549Z,48.10
2018-09-28T12:04:58.362Z,53.20
2018-09-28T12:07:30.730Z,53.30
2018-09-28T12:10:00.366Z,54.80
2018-09-28T12:12:30.288Z,55.60
2018-09-28T12:14:58.741Z,56.90
2018-09-28T12:17:27.239Z,57.60
2018-09-28T12:19:56.373Z,59.30
2018-09-28T12:22:24.998Z,59.40
2018-09-28T12:24:53.548Z,62.90
2018-09-28T12:27:22.251Z,63.40
2018-09-28T12:29:50.791Z,63.90
2018-09-28T12:32:19.185Z,63.70
2018-09-28T12:34:47.986Z,62.00
2018-09-28T12:37:19.557Z,63.90
2018-09-28T12:39:48.454Z,63.30
2018-09-28T12:42:17.163Z,62.10
2018-09-28T12:44:45.789Z,60.30
2018-09-28T12:47:14.308Z,60.40
2018-09-28T12:49:42.778Z,60.20
2018-09-28T12:52:11.317Z,60.90
2018-09-28T12:54:40.038Z,61.20
2018-09-28T12:57:08.692Z,59.80
2018-09-28T13:02:50.204Z,59.90
2018-09-28T13:05:18.935Z,60.70
2018-09-28T13:07:47.530Z,59.80
2018-09-28T13:10:28.641Z,61.80
2018-09-28T13:12:57.307Z,61.00
2018-09-28T13:15:26.092Z,62.10
2018-09-28T13:17:54.781Z,62.00
2018-09-28T13:20:23.559Z,60.70
2018-09-28T13:22:52.316Z,59.20
2018-09-28T13:25:29.215Z,57.50
2018-09-28T13:27:58.949Z,57.60
2018-09-28T13:33:27.670Z,56.80
2018-09-28T13:35:59.079Z,56.00
2018-09-28T13:40:11.441Z,55.40
2018-09-28T13:42:40.196Z,53.40
2018-09-28T13:45:27.735Z,51.80
2018-09-28T13:47:59.464Z,52.80
2018-09-28T13:50:36.043Z,54.00
2018-09-28T13:53:04.565Z,53.10
2018-09-28T13:55:33.166Z,51.90
2018-09-28T13:58:06.807Z,51.50
2018-09-28T14:00:37.159Z,52.70
2018-09-28T14:03:05.753Z,52.60
2018-09-28T14:05:34.384Z,52.50
2018-09-28T14:08:03.043Z,54.00
2018-09-28T14:10:31.760Z,53.80
2018-09-28T14:13:24.670Z,51.80
2018-09-28T14:15:55.097Z,53.00
2018-09-28T14:18:23.936Z,51.00
2018-09-28T14:20:52.855Z,50.90
2018-09-28T14:23:21.469Z,52.00
2018-09-28T14:28:42.446Z,52.00
2018-09-28T14:31:11.046Z,52.20
2018-09-28T14:33:50.357Z,52.30
2018-09-28T14:36:19.495Z,52.70
2018-09-28T14:38:47.996Z,51.80
2018-09-28T14:41:16.608Z,52.70
2018-09-28T14:43:45.548Z,51.00
2018-09-28T14:46:28.287Z,50.70
2018-09-28T14:48:58.068Z,49.10
2018-09-28T14:51:29.892Z,48.20
2018-09-28T14:54:27.772Z,48.00
2018-09-28T14:56:59.146Z,49.70
2018-09-28T14:59:27.880Z,48.90
2018-09-28T15:01:56.642Z,49.00
2018-09-28T15:04:25.395Z,51.80
2018-09-28T15:06:54.148Z,54.70
2018-09-28T15:09:47.861Z,55.00
2018-09-28T15:12:16.588Z,56.00
2018-09-28T15:14:58.700Z,55.20
2018-09-28T15:17:27.515Z,56.60
2018-09-28T15:19:56.776Z,55.90
2018-09-28T15:22:25.484Z,56.10
2018-09-28T15:24:54.010Z,56.90
2018-09-28T15:27:22.566Z,56.40
2018-09-28T15:29:51.357Z,59.00
2018-09-28T15:32:21.961Z,57.80
2018-09-28T15:34:51.420Z,59.30
2018-09-28T15:37:28.440Z,57.40
2018-09-28T15:40:02.669Z,56.90
2018-09-28T15:42:31.330Z,56.50
2018-09-28T15:44:59.877Z,54.70
2018-09-28T15:47:28.571Z,56.20
2018-09-28T15:49:57.030Z,53.40
2018-09-28T15:52:25.593Z,55.20
2018-09-28T15:55:29.137Z,54.20
2018-09-28T15:57:59.296Z,53.80
2018-09-28T16:00:27.963Z,53.40
2018-09-28T16:04:00.849Z,51.90
2018-09-28T16:12:01.896Z,52.20
2018-09-28T16:14:30.558Z,53.50
2018-09-28T16:16:59.693Z,52.30
2018-09-28T16:19:28.273Z,52.50
2018-09-28T16:21:56.830Z,53.00
2018-09-28T16:24:25.504Z,54.40
2018-09-28T16:26:54.195Z,53.50
2018-09-28T16:29:25.819Z,53.10
2018-09-28T16:31:55.426Z,54.70
2018-09-28T16:34:24.131Z,54.70
2018-09-28T16:36:52.850Z,55.40
2018-09-28T16:39:21.398Z,55.20
2018-09-28T16:41:49.993Z,54.80
2018-09-28T16:44:33.587Z,55.60
2018-09-28T16:47:03.902Z,55.20
2018-09-28T16:49:42.550Z,54.20
2018-09-28T16:52:29.207Z,54.30
2018-09-28T16:54:59.517Z,54.00
2018-09-28T16:57:28.038Z,54.60
2018-09-28T16:59:57.702Z,54.40
2018-09-28T17:02:28.388Z,54.90
2018-09-28T17:04:58.870Z,54.70
2018-09-28T17:07:27.461Z,54.20
2018-09-28T17:09:56.520Z,53.70
2018-09-28T17:12:25.292Z,55.70
2018-09-28T17:14:56.528Z,54.30
2018-09-28T17:17:25.875Z,55.00
2018-09-28T17:19:56.379Z,54.60
2018-09-28T17:22:25.477Z,54.70
2018-09-28T17:24:54.800Z,55.00
2018-09-28T17:27:23.289Z,55.20
2018-09-28T17:29:51.829Z,56.50
2018-09-28T17:32:23.898Z,55.80
2018-09-28T17:34:52.772Z,56.20
2018-09-28T17:37:24.419Z,56.30
2018-09-28T17:39:53.182Z,58.30
2018-09-28T17:42:31.016Z,57.60
2018-09-28T17:44:59.713Z,58.20
2018-09-28T17:47:28.393Z,56.70
2018-09-28T17:49:57.261Z,56.30
2018-09-28T17:52:25.821Z,55.90
2018-09-28T17:54:54.450Z,56.30
2018-09-28T17:57:29.047Z,57.00
2018-09-28T17:59:58.568Z,57.20
2018-09-28T18:02:29.460Z,57.30
2018-09-28T18:04:58.717Z,57.10
2018-09-28T18:07:30.744Z,57.40
2018-09-28T18:13:02.505Z,59.10
2018-09-28T18:15:31.032Z,58.00
2018-09-28T18:17:59.485Z,58.40
2018-09-28T18:20:27.972Z,58.80
2018-09-28T18:22:56.506Z,60.20
2018-09-28T18:25:24.888Z,59.50
2018-09-28T18:27:53.319Z,59.30
2018-09-28T18:30:21.764Z,59.00
2018-09-28T18:32:50.195Z,59.60
2018-09-28T18:35:18.969Z,60.30
2018-09-28T18:37:47.469Z,59.80
2018-09-28T18:40:16.848Z,60.70
2018-09-28T18:42:45.663Z,60.40
2018-09-28T18:45:14.317Z,59.90
2018-09-28T18:47:43.223Z,60.70
2018-09-28T18:50:12.324Z,60.90
2018-09-28T18:52:40.761Z,60.60
2018-09-28T18:55:09.637Z,60.80
2018-09-28T18:57:39.287Z,61.60
2018-09-28T19:00:07.829Z,62.00
2018-09-28T19:02:36.447Z,61.40
2018-09-28T19:05:06.292Z,61.80
2018-09-28T19:07:39.701Z,61.70
2018-09-28T19:10:18.761Z,62.00
2018-09-28T19:16:11.903Z,62.20
2018-09-28T19:18:50.015Z,62.80
2018-09-28T19:37:19.695Z,62.50
2018-09-28T19:39:48.466Z,64.70
2018-09-28T19:42:17.222Z,64.00
2018-09-28T19:44:46.327Z,64.40
2018-09-28T19:47:20.760Z,64.50
2018-09-28T20:04:01.446Z,64.60
2018-09-28T20:06:30.043Z,65.20
2018-09-28T20:08:58.718Z,65.10
2018-09-28T20:11:27.148Z,65.30
2018-09-28T20:13:59.208Z,65.50
2018-09-28T20:30:06.684Z,65.70
2018-09-28T20:46:20.806Z,67.20
2018-09-28T20:48:59.348Z,68.20
2018-09-28T20:51:30.951Z,68.30
2018-09-28T20:54:00.282Z,68.30
2018-09-28T20:56:30.574Z,68.90
2018-09-28T20:59:00.147Z,68.50
2018-09-28T21:01:29.037Z,69.10
2018-09-28T21:03:59.040Z,69.20
2018-09-28T21:06:27.702Z,69.50
2018-09-28T21:08:56.348Z,70.20
2018-09-28T21:11:25.783Z,69.70
2018-09-28T21:13:54.574Z,70.00
2018-09-28T21:16:23.206Z,70.20
2018-09-28T21:18:51.886Z,70.30
2018-09-28T21:21:20.497Z,70.70
2018-09-28T21:23:49.030Z,70.80
2018-09-28T21:26:17.500Z,70.70
2018-09-28T21:28:45.964Z,71.20
2018-09-28T21:31:14.533Z,71.10
2018-09-28T21:33:43.142Z,71.30
2018-09-28T21:36:11.762Z,71.30
2018-09-28T21:38:40.375Z,71.70
2018-09-28T21:41:08.873Z,71.70
2018-09-28T21:43:37.531Z,72.00
2018-09-28T21:46:06.210Z,71.70
2018-09-28T21:48:34.867Z,72.00
2018-09-28T21:51:03.420Z,72.20
2018-09-28T21:53:31.852Z,72.40
2018-09-28T21:56:00.381Z,73.70
2018-09-28T21:58:29.153Z,73.20
2018-09-28T22:00:58.476Z,72.60
2018-09-28T22:03:27.063Z,72.80
2018-09-28T22:05:55.813Z,72.60
2018-09-28T22:08:24.324Z,72.90
2018-09-28T22:10:52.908Z,73.20
2018-09-28T22:13:21.406Z,73.50
2018-09-28T22:15:49.969Z,73.50
2018-09-28T22:18:18.592Z,74.20
2018-09-28T22:20:47.204Z,73.70
2018-09-28T22:23:15.832Z,73.60
2018-09-28T22:25:44.404Z,73.80
2018-09-28T22:28:12.940Z,74.00
2018-09-28T22:30:41.577Z,73.60
2018-09-28T22:33:10.339Z,73.70
2018-09-28T22:35:39.068Z,73.00
2018-09-28T22:38:07.558Z,73.50
2018-09-28T22:40:36.048Z,73.80
2018-09-28T22:43:04.624Z,74.00
2018-09-28T22:45:33.103Z,74.10
2018-09-28T22:48:01.789Z,74.20
2018-09-28T22:50:30.344Z,74.40
2018-09-28T22:52:58.972Z,74.50
2018-09-28T22:55:27.573Z,74.30
2018-09-28T22:57:56.045Z,74.20
2018-09-28T23:00:24.644Z,74.80
2018-09-28T23:02:53.150Z,74.20
2018-09-28T23:05:21.730Z,75.00
2018-09-28T23:07:50.300Z,74.70
2018-09-28T23:10:18.793Z,74.50
2018-09-28T23:12:47.490Z,74.60
2018-09-28T23:15:16.073Z,74.30
2018-09-28T23:17:44.629Z,74.60
2018-09-28T23:20:13.060Z,74.80
2018-09-28T23:22:41.521Z,75.20
2018-09-28T23:25:10.113Z,74.80
2018-09-28T23:27:38.648Z,74.90
2018-09-28T23:30:07.476Z,75.30
2018-09-28T23:32:59.212Z,75.30
2018-09-28T23:35:27.777Z,75.80
2018-09-28T23:37:59.683Z,75.80
2018-09-28T23:40:29.556Z,75.50
2018-09-28T23:42:59.898Z,75.50
2018-09-28T23:45:28.477Z,75.60
2018-09-28T23:47:59.059Z,75.80
2018-09-28T23:50:27.712Z,75.50
2018-09-28T23:52:56.293Z,76.00
2018-09-28T23:55:29.881Z,76.50
2018-09-28T23:57:59.859Z,76.80
